Terminal Aerodrome Forecast
Issued by NWS

Home | Current Version | Previous Version | Text Only | Print | Product List | Glossary On
Versions: 1 2 3 4 5 6 7 8 9 10 11 12 13 14
000
FTUS44 KEPZ 200500
TAFLRU
TAF
KLRU 200520Z 2006/2106 31010KT P6SM VCSH SCT050CB BKN080 OVC150
      TEMPO 2006/2010 6SM -SHRA BKN050 OVC100
     FM201000 29010KT P6SM VCTS SCT050CB SCT100 BKN200
     FM201800 26010KT P6SM SCT060 SCT120 SCT250
     FM210500 29008KT P6SM FEW060=

USA.gov is the U.S. government's official web portal to all federal, state and local government web resources and services.